Terminal Aerodrome Forecast
Issued by NWS Hastings, NE

Home | Current Version | Previous Version | Text Only | Print | Product List | Glossary On
Versions: 1 2 3 4 5 6 7 8 9 10 11 12 13 14 15
000
FTUS43 KGID 180520
TAFGRI
TAF
KGRI 180520Z 1806/1906 35016G24KT P6SM -RA OVC040
     FM180700 35018G25KT P6SM -RA OVC020
     FM181000 35018G27KT P6SM VCSH OVC045
     FM181200 33016G24KT P6SM BKN080
     FM181700 32017G25KT P6SM SCT050 SCT100
     FM190000 31008KT P6SM SKC=

USA.gov is the U.S. government's official web portal to all federal, state and local government web resources and services.